Malatya/Erhac, Turkey
Current Conditions -  °F | °C
As of 11:20 AM on Sunday 21 Dec 2014 (Local Time) from LTAT Reporting Station
Haze Haze  
Wind Chill: 32°   Ceiling: 1700
Heat Index: 36°   Visibility: 2.5mi
Dew Point: 36°   Wind: 5mph
Humidity: 100%   Direction: 280°W
Pressure: 30.15"   Gusts: NA
Location:  38.43°N, 38.08°E
Report Text: LTAT 210820Z 28004KT 220V320 4000 BR OVC017 02/02 Q1021 BECMG TL0850 6000
Loading
Personal Weather Stations






























Interactive Weather Map New forecast layout! Learn more

10-Day Weather Forecast

Advertisements
Track Severe Weather on mobile